• Join FlightAware (Why Join?)
  • Login
  • US Flag 
11:04PM EST


 

Airport Tracker/Info


-or-


 

Live Flight TrackerFlight Track Log ✈ SWA22 ✈ 09-Apr-2013 ✈ KHOU - KDAL

Flight Track Log - Related Links

Times and Time Zones

All times are in EDT time to prevent confusion due to time zone crossing. See the SWA22 flight status page for this flight to view local times or setup timezone preferences in your user account.

Time Position Orientation Groundspeed Altitude Reporting Facility
EDT Latitude Longitude Course Direction KTS MPH feet Rate Location/Type
12:36PM 29.6353 -95.2892 114° Southeast 141 162 800  Level Houston Center
12:37PM 29.6244 -95.2617 114° Southeast 207 238 1,900 1,596 Climbing Houston Center
12:38PM 29.6622 -95.2547 North 243 280 3,300 2,491 Climbing Houston Center
12:39PM 29.7433 -95.2750 348° North 284 327 6,300 3,714 Climbing Houston Center
12:39PM 29.7906 -95.2872 347° North 308 354 8,500 4,065 Climbing Houston Center
12:40PM 29.8464 -95.3014 348° North 310 357 10,500 2,854 Climbing Houston Center
12:41PM 29.9417 -95.3264 347° North 344 396 13,400 2,928 Climbing Houston Center
12:42PM 30.0419 -95.3519 348° North 362 417 16,600 3,000 Climbing Houston Center
12:43PM 30.1428 -95.3761 348° North 368 423 19,600 2,661 Climbing Houston Center
12:44PM 30.2511 -95.4050 347° North 388 447 22,100 2,371 Climbing Houston Center
12:45PM 30.3611 -95.4333 347° North 400 460 24,500 2,177 Climbing Houston Center
12:46PM 30.4936 -95.4661 348° North 404 465 26,600 1,887 Climbing Houston Center
12:47PM 30.6125 -95.4933 349° North 429 494 28,400 1,742 Climbing Houston Center
12:48PM 30.7303 -95.5197 349° North 439 505 30,200 1,536 Climbing Houston Center
12:49PM 30.8550 -95.5478 349° North 449 517 31,600 1,680 Climbing Houston Center
12:50PM 30.9819 -95.5778 349° North 458 527 33,700 2,129 Climbing Houston Center
12:51PM 31.1250 -95.6086 350° North 442 509 36,000 1,113 Climbing Houston Center
12:52PM 31.2422 -95.6353 349° North 432 497 36,000  Level Houston Center
12:52PM 31.2761 -95.6414 351° North 442 509 36,000 -1,920 Level Fort Worth Center
12:53PM 31.3894 -95.6831 343° North 430 495 33,600 -2,600 Descending Fort Worth Center
12:54PM 31.4925 -95.7519 330° Northwest 423 487 30,800 -2,600 Descending Fort Worth Center
12:55PM 31.5936 -95.8208 330° Northwest 423 487 28,400 -2,300 Descending Fort Worth Center
12:56PM 31.6928 -95.8897 329° Northwest 423 487 26,200 -2,150 Descending Fort Worth Center
12:57PM 31.7894 -95.9469 333° Northwest 423 487 24,100 -2,200 Descending Fort Worth Center
12:58PM 31.8842 -96.0114 330° Northwest 410 472 21,800 -2,300 Descending Fort Worth Center
12:59PM 31.9850 -96.0736 332° Northwest 386 444 19,500 -2,350 Descending Fort Worth Center
01:00PM 32.0775 -96.1336 331° Northwest 380 437 17,100 -2,350 Descending Fort Worth Center
01:01PM 32.1719 -96.1961 331° Northwest 385 443 14,800 -2,200 Descending Fort Worth Center
01:02PM 32.2497 -96.2489 330° Northwest 374 430 12,700 -2,200 Descending Fort Worth Center
01:03PM 32.3464 -96.3117 331° Northwest 368 423 10,400 -1,700 Descending Fort Worth Center
01:04PM 32.4197 -96.3600 331° Northwest 340 391 9,300 -1,050 Descending Fort Worth Center
01:05PM 32.5036 -96.4108 333° Northwest 315 362 8,300 -950 Descending Fort Worth Center
01:06PM 32.5792 -96.4569 333° Northwest 308 354 7,400 -1,000 Descending Fort Worth Center
01:07PM 32.6547 -96.5031 333° Northwest 308 354 6,300 -1,000 Descending Fort Worth Center
01:08PM 32.7261 -96.5567 328° Northwest 302 348 5,400 -600 Descending Fort Worth Center
01:09PM 32.7911 -96.6103 325° Northwest 297 342 5,100 -200 Descending Fort Worth Center
01:10PM 32.8603 -96.6664 326° Northwest 297 342 5,000 -466 Descending Fort Worth Center
01:11PM 32.9000 -96.7000 325° Northwest 289 333 4,300 -874 Descending Dallas / Fort Worth TRACON
01:12PM 32.9667 -96.7500 328° Northwest 258 297 3,500 -678 Descending Dallas / Fort Worth TRACON
01:13PM 32.9833 -96.8167 287° West 228 262 3,000 -496 Descending Dallas / Fort Worth TRACON
01:14PM 32.9500 -96.8833 239° Southwest 201 231 2,500 -550 Descending Dallas / Fort Worth TRACON
01:15PM 32.9000 -96.9000 196° South 187 215 1,900 -684 Descending Dallas / Fort Worth TRACON
01:16PM 32.8667 -96.8833 157° South 123 142 1,200 -700 Descending Dallas / Fort Worth TRACON
01:19PM 32.8471 -96.8518 40° Northeast  Level Estimated